Time;durP1;ratioP1;P1;durP2;ratioP2;P2;SDS_P1;SDS_P2;PMS_P1;PMS_P2;Temp;Humidity;BMP_temperature;BMP_pressure;BME280_temperature;BME280_humidity;BME280_pressure;Samples;Min_cycle;Max_cycle;Signal;HPM_P1;HPM_P2
2022/11/14 00:01:48;;;;;;;49.60;30.23;;;;;;;8.14;97.51;102305.16;5024124;28;20210;-77
2022/11/14 00:04:32;;;;;;;49.90;30.30;;;;;;;8.12;97.52;102301.69;5024302;28;20280;-80
2022/11/14 00:07:16;;;;;;;50.13;31.03;;;;;;;8.13;97.21;102303.44;5023932;28;20321;-79
2022/11/14 00:10:00;;;;;;;52.00;30.27;;;;;;;8.10;97.31;102300.69;5021917;28;20210;-79
2022/11/14 00:12:44;;;;;;;48.23;30.57;;;;;;;8.05;97.99;102295.38;5025177;28;20252;-79
2022/11/14 00:15:28;;;;;;;48.40;30.33;;;;;;;8.08;97.97;102297.22;5016757;28;20246;-79
2022/11/14 00:18:12;;;;;;;46.83;29.87;;;;;;;8.08;97.94;102304.88;5028652;28;20619;-78
2022/11/14 00:20:56;;;;;;;49.67;31.23;;;;;;;8.04;97.77;102285.97;5027351;28;20201;-79
2022/11/14 00:23:40;;;;;;;49.63;31.13;;;;;;;8.05;97.60;102272.41;5020310;28;20216;-78
2022/11/14 00:26:24;;;;;;;50.50;30.83;;;;;;;8.08;98.26;102275.13;5020043;28;20264;-78
2022/11/14 00:29:10;;;;;;;50.93;32.33;;;;;;;8.04;97.39;102273.22;5021338;28;20298;-78
2022/11/14 00:31:54;;;;;;;51.50;30.00;;;;;;;8.04;97.48;102265.56;5025906;28;20201;-79
2022/11/14 00:34:38;;;;;;;50.53;30.90;;;;;;;8.01;97.71;102257.75;5014943;28;20233;-78
2022/11/14 00:37:22;;;;;;;55.10;31.30;;;;;;;8.03;97.98;102245.97;5020096;28;20260;-78
2022/11/14 00:40:07;;;;;;;49.33;31.60;;;;;;;8.03;97.73;102251.06;5020493;28;20201;-78
2022/11/14 00:42:51;;;;;;;51.10;31.60;;;;;;;8.05;97.95;102238.38;5017975;28;20221;-79
2022/11/14 00:45:35;;;;;;;49.53;31.80;;;;;;;8.02;98.03;102234.00;5020867;28;20222;-78
2022/11/14 00:48:19;;;;;;;51.50;32.33;;;;;;;8.02;97.65;102233.13;5024338;28;20253;-78
2022/11/14 00:51:03;;;;;;;51.17;32.47;;;;;;;7.99;97.20;102241.50;5025190;28;20205;-77
2022/11/14 00:53:47;;;;;;;52.73;32.13;;;;;;;8.00;98.55;102238.16;5019094;28;20397;-79
2022/11/14 00:56:31;;;;;;;53.10;33.07;;;;;;;8.00;97.91;102242.38;5018471;28;20324;-78
2022/11/14 00:59:15;;;;;;;52.87;32.67;;;;;;;8.02;97.38;102243.34;5013565;28;20198;-78
2022/11/14 01:02:00;;;;;;;51.90;31.37;;;;;;;7.96;97.55;102243.00;5019095;28;20195;-78
2022/11/14 01:04:44;;;;;;;52.97;32.77;;;;;;;7.95;97.85;102238.69;5015559;28;20250;-78
2022/11/14 01:07:28;;;;;;;51.77;32.10;;;;;;;7.98;98.19;102236.31;5027176;28;20210;-79
2022/11/14 01:10:12;;;;;;;56.20;33.20;;;;;;;7.95;98.28;102225.94;5019511;28;20306;-79
2022/11/14 01:12:56;;;;;;;52.77;32.00;;;;;;;7.90;97.98;102230.81;5025380;28;20232;-77
2022/11/14 01:15:47;;;;;;;57.87;33.53;;;;;;;7.94;98.38;102234.41;5014960;28;20218;-77
2022/11/14 01:18:32;;;;;;;53.83;33.00;;;;;;;7.95;98.06;102224.28;5019447;28;20257;-78
2022/11/14 01:21:16;;;;;;;52.87;32.27;;;;;;;7.94;98.07;102216.56;5024890;28;20185;-79
2022/11/14 01:24:00;;;;;;;49.93;30.50;;;;;;;7.93;98.28;102214.81;5020118;28;20217;-79
2022/11/14 01:26:44;;;;;;;50.83;32.03;;;;;;;7.93;98.22;102218.22;5013537;28;20268;-78
2022/11/14 01:29:28;;;;;;;56.20;33.37;;;;;;;7.92;98.19;102208.81;5018288;28;20225;-79
2022/11/14 01:32:12;;;;;;;57.57;35.07;;;;;;;7.91;98.12;102204.53;5024355;28;20245;-79
2022/11/14 01:34:56;;;;;;;57.20;33.50;;;;;;;7.91;97.82;102201.06;5008023;28;20222;-79
2022/11/14 01:37:40;;;;;;;56.33;34.33;;;;;;;7.91;97.90;102198.53;5031435;28;20206;-79
2022/11/14 01:40:24;;;;;;;59.27;33.40;;;;;;;7.92;98.11;102188.41;5021290;28;20202;-79
2022/11/14 01:43:18;;;;;;;55.87;33.20;;;;;;;7.95;98.08;102188.59;5028365;28;20189;-79
2022/11/14 01:46:13;;;;;;;55.93;32.93;;;;;;;7.95;97.72;102190.25;5024065;28;20298;-80
2022/11/14 01:49:25;;;;;;;54.40;32.87;;;;;;;7.91;97.70;102173.91;5036721;28;20233;-78
2022/11/14 01:52:19;;;;;;;56.23;33.73;;;;;;;7.90;98.09;102174.72;5011181;28;20267;-79
2022/11/14 01:55:07;;;;;;;57.30;33.53;;;;;;;7.92;98.30;102175.66;5016833;28;20768;-79
2022/11/14 01:57:51;;;;;;;55.67;33.03;;;;;;;7.92;97.71;102164.59;5018290;28;20244;-79
2022/11/14 02:00:36;;;;;;;57.83;34.27;;;;;;;7.92;97.65;102167.16;5022909;28;20206;-78
2022/11/14 02:03:20;;;;;;;57.07;33.43;;;;;;;7.94;97.69;102163.88;5010446;28;20198;-78
2022/11/14 02:06:07;;;;;;;55.33;33.33;;;;;;;7.93;97.67;102158.69;5014321;28;20679;-79
2022/11/14 02:08:52;;;;;;;52.77;33.00;;;;;;;7.92;97.33;102146.75;5020293;28;20242;-78
2022/11/14 02:11:40;;;;;;;54.77;33.80;;;;;;;7.90;98.33;102150.88;5016684;28;20201;-79
2022/11/14 02:14:26;;;;;;;53.60;32.60;;;;;;;7.89;98.13;102146.59;5022978;28;20233;-78
2022/11/14 02:17:11;;;;;;;55.07;34.03;;;;;;;7.91;97.18;102137.31;5024232;28;20177;-78
2022/11/14 02:20:02;;;;;;;57.63;34.90;;;;;;;7.90;97.40;102131.38;5026601;23;20254;-72
2022/11/14 02:22:46;;;;;;;57.40;34.37;;;;;;;7.89;97.64;102128.75;4984512;28;20206;-72
2022/11/14 02:25:30;;;;;;;56.20;32.57;;;;;;;7.91;97.70;102127.13;4981580;28;20210;-72
2022/11/14 02:28:14;;;;;;;54.53;32.87;;;;;;;7.90;97.98;102128.81;4987593;28;20203;-71
2022/11/14 02:30:58;;;;;;;56.73;33.73;;;;;;;7.89;97.76;102129.63;4988435;28;20256;-72
2022/11/14 02:33:42;;;;;;;56.83;33.00;;;;;;;7.88;97.86;102121.91;4985907;28;20571;-71
2022/11/14 02:36:26;;;;;;;52.97;33.03;;;;;;;7.84;97.69;102120.00;4985121;28;20215;-71
2022/11/14 02:39:10;;;;;;;56.13;33.87;;;;;;;7.85;97.36;102114.97;4982930;28;20222;-71
2022/11/14 02:41:54;;;;;;;56.13;34.23;;;;;;;7.84;97.57;102113.19;4983764;28;20288;-71
2022/11/14 02:44:38;;;;;;;55.57;33.73;;;;;;;7.84;97.01;102107.25;4981063;28;20208;-71
2022/11/14 02:47:23;;;;;;;55.53;34.60;;;;;;;7.84;97.94;102103.00;4986745;28;20250;-71
2022/11/14 02:50:08;;;;;;;58.37;33.93;;;;;;;7.81;97.54;102105.41;4982388;28;20354;-72
2022/11/14 02:52:52;;;;;;;55.87;34.37;;;;;;;7.84;97.65;102100.44;4989228;28;20214;-70
2022/11/14 02:55:36;;;;;;;57.50;33.60;;;;;;;7.85;97.41;102103.88;4985367;28;20211;-70
2022/11/14 02:58:20;;;;;;;56.20;34.07;;;;;;;7.83;98.75;102105.50;4985846;28;20202;-70
2022/11/14 03:01:04;;;;;;;58.93;35.43;;;;;;;7.80;98.53;102090.91;4985429;28;20237;-70
2022/11/14 03:03:48;;;;;;;57.10;35.27;;;;;;;7.83;97.95;102090.19;4985418;28;20286;-71
2022/11/14 03:06:32;;;;;;;54.87;34.83;;;;;;;7.81;98.07;102086.69;4981204;28;20223;-72
2022/11/14 03:09:17;;;;;;;54.00;34.70;;;;;;;7.82;97.80;102079.09;4986973;28;20223;-71
2022/11/14 03:12:01;;;;;;;56.20;35.10;;;;;;;7.84;97.51;102074.94;4989730;28;20215;-71
2022/11/14 03:14:45;;;;;;;56.90;34.33;;;;;;;7.85;98.10;102069.06;4987287;28;20695;-72
2022/11/14 03:17:30;;;;;;;60.03;35.10;;;;;;;7.84;97.86;102069.84;4986513;28;20264;-70
2022/11/14 03:20:16;;;;;;;59.53;36.87;;;;;;;7.84;98.39;102066.44;4984817;28;20645;-71
2022/11/14 03:23:00;;;;;;;61.47;35.93;;;;;;;7.84;97.80;102054.56;4989434;28;20250;-71
2022/11/14 03:25:44;;;;;;;57.57;33.70;;;;;;;7.84;98.39;102051.16;4990056;28;20289;-70
2022/11/14 03:28:28;;;;;;;58.17;34.70;;;;;;;7.83;97.41;102045.16;4990794;28;20230;-70
2022/11/14 03:31:13;;;;;;;57.53;34.77;;;;;;;7.82;97.43;102045.06;4992695;28;20203;-70
2022/11/14 03:33:57;;;;;;;56.50;34.83;;;;;;;7.82;98.15;102040.88;4993212;28;20295;-73
2022/11/14 03:36:41;;;;;;;59.67;35.47;;;;;;;7.81;98.31;102036.56;4989658;28;20572;-74
2022/11/14 03:39:25;;;;;;;59.27;35.40;;;;;;;7.82;97.71;102029.78;4992682;28;20309;-73
2022/11/14 03:42:09;;;;;;;54.90;34.27;;;;;;;7.79;97.68;102037.31;4997649;28;20562;-73
2022/11/14 03:44:53;;;;;;;58.87;34.33;;;;;;;7.78;98.19;102036.41;4992286;28;20202;-72
2022/11/14 03:47:37;;;;;;;53.30;33.43;;;;;;;7.77;98.00;102033.78;4992781;28;20213;-72
2022/11/14 03:50:21;;;;;;;54.77;33.13;;;;;;;7.78;98.47;102030.47;4993344;28;20278;-70
2022/11/14 03:53:05;;;;;;;61.30;35.80;;;;;;;7.75;98.25;102031.19;4993379;28;20210;-71
2022/11/14 03:55:50;;;;;;;56.43;35.47;;;;;;;7.75;97.40;102027.75;4991375;28;20338;-71
2022/11/14 03:58:34;;;;;;;56.30;32.77;;;;;;;7.75;98.16;102027.75;4993464;28;20703;-71
2022/11/14 04:01:18;;;;;;;54.07;33.90;;;;;;;7.76;97.31;102021.84;4993059;28;20198;-71
2022/11/14 04:04:02;;;;;;;54.33;33.53;;;;;;;7.73;98.20;102020.00;4993014;28;20257;-71
2022/11/14 04:06:46;;;;;;;49.57;31.83;;;;;;;7.74;97.81;102019.22;4992680;28;20210;-71
2022/11/14 04:09:30;;;;;;;54.97;33.27;;;;;;;7.72;97.78;102014.84;4987856;28;20234;-72
2022/11/14 04:12:14;;;;;;;54.87;33.37;;;;;;;7.70;98.68;102019.00;4993076;28;20702;-71
2022/11/14 04:14:58;;;;;;;59.20;34.37;;;;;;;7.68;97.57;102013.81;4992799;28;20635;-70
2022/11/14 04:17:43;;;;;;;56.00;33.50;;;;;;;7.71;98.03;102008.88;4993158;28;20588;-72
2022/11/14 04:20:27;;;;;;;55.17;32.60;;;;;;;7.68;98.03;102002.75;4992731;28;20265;-70
2022/11/14 04:23:11;;;;;;;57.60;33.67;;;;;;;7.67;97.73;101991.69;4993112;28;20190;-70
2022/11/14 04:25:55;;;;;;;55.87;33.13;;;;;;;7.67;97.45;101995.91;4990562;28;20269;-70
2022/11/14 04:28:39;;;;;;;57.70;33.80;;;;;;;7.65;97.51;101993.25;4991965;28;20270;-71
2022/11/14 04:31:23;;;;;;;53.77;31.60;;;;;;;7.65;97.49;101992.41;4990755;28;20262;-71
2022/11/14 04:34:07;;;;;;;57.03;33.17;;;;;;;7.67;97.51;101980.59;4988681;28;20574;-72
2022/11/14 04:36:51;;;;;;;55.20;32.33;;;;;;;7.67;97.75;101976.38;4992240;28;20715;-72
2022/11/14 04:39:35;;;;;;;54.83;31.67;;;;;;;7.69;97.60;101974.78;4991620;28;20933;-71
2022/11/14 04:42:19;;;;;;;57.50;34.57;;;;;;;7.68;97.83;101972.16;4991290;28;20206;-72
2022/11/14 04:45:04;;;;;;;56.50;34.80;;;;;;;7.66;97.59;101966.13;4992498;28;20300;-72
2022/11/14 04:47:48;;;;;;;55.90;33.37;;;;;;;7.67;97.02;101978.06;4992363;28;20642;-71
2022/11/14 04:50:32;;;;;;;55.67;33.60;;;;;;;7.67;98.02;101967.84;4991495;28;20230;-70
2022/11/14 04:53:16;;;;;;;54.67;32.57;;;;;;;7.66;97.47;101974.66;4991896;28;20253;-74
2022/11/14 04:56:00;;;;;;;54.47;32.90;;;;;;;7.67;97.82;101966.19;4988753;28;20580;-72
2022/11/14 04:58:44;;;;;;;56.83;33.47;;;;;;;7.67;97.90;101962.75;4992092;28;20246;-74
2022/11/14 05:01:28;;;;;;;52.80;32.43;;;;;;;7.64;97.48;101968.59;4992160;28;20287;-71
2022/11/14 05:04:12;;;;;;;51.43;32.63;;;;;;;7.63;97.46;101954.09;4992273;28;20226;-72
2022/11/14 05:06:55;;;;;;;57.97;33.80;;;;;;;7.64;98.00;101962.63;4992186;28;20250;-72
2022/11/14 05:09:40;;;;;;;52.60;33.67;;;;;;;7.62;97.68;101956.56;4990467;28;20231;-70
2022/11/14 05:12:23;;;;;;;56.63;33.40;;;;;;;7.61;97.74;101957.38;4990131;28;20207;-70
2022/11/14 05:15:08;;;;;;;55.00;33.10;;;;;;;7.62;98.34;101960.00;4988147;28;20246;-70
2022/11/14 05:17:52;;;;;;;59.90;35.43;;;;;;;7.59;97.60;101947.09;4991706;28;20254;-71
2022/11/14 05:20:36;;;;;;;59.53;35.77;;;;;;;7.58;97.79;101952.13;4990139;28;20230;-71
2022/11/14 05:23:22;;;;;;;53.67;33.37;;;;;;;7.58;98.46;101950.44;4990254;28;20266;-71
2022/11/14 05:26:13;;;;;;;56.50;34.73;;;;;;;7.60;97.65;101953.09;4991973;28;20222;-71
2022/11/14 05:28:57;;;;;;;53.93;33.37;;;;;;;7.59;98.17;101954.75;4990709;28;20242;-70
2022/11/14 05:31:40;;;;;;;53.17;33.13;;;;;;;7.60;97.97;101948.84;4991680;28;20206;-70
2022/11/14 05:34:25;;;;;;;55.40;35.07;;;;;;;7.60;97.66;101945.44;4988196;28;20198;-71
2022/11/14 05:37:09;;;;;;;56.10;32.93;;;;;;;7.59;97.35;101946.22;4989919;28;20615;-71
2022/11/14 05:39:53;;;;;;;58.93;34.30;;;;;;;7.56;97.53;101941.00;4988452;28;20210;-71
2022/11/14 05:42:37;;;;;;;58.43;33.60;;;;;;;7.58;97.71;101942.81;4989988;28;20213;-71
2022/11/14 05:45:21;;;;;;;57.00;33.77;;;;;;;7.60;97.27;101935.25;4990312;28;20194;-71
2022/11/14 05:48:05;;;;;;;56.93;34.73;;;;;;;7.57;97.07;101935.09;4988691;28;20195;-72
2022/11/14 05:50:53;;;;;;;57.90;34.37;;;;;;;7.54;98.29;101929.81;4990052;28;20225;-72
2022/11/14 05:53:38;;;;;;;55.80;33.37;;;;;;;7.58;98.48;101932.63;4986850;28;20350;-73
2022/11/14 05:56:22;;;;;;;57.73;33.43;;;;;;;7.57;97.72;101928.31;4986703;28;20577;-71
2022/11/14 05:59:06;;;;;;;56.47;35.17;;;;;;;7.57;98.27;101933.44;4982235;28;20672;-73
2022/11/14 06:01:50;;;;;;;58.23;33.80;;;;;;;7.57;97.39;101932.53;4986346;28;20839;-73
2022/11/14 06:04:34;;;;;;;56.30;33.13;;;;;;;7.57;98.87;101935.09;4987508;28;20198;-69
2022/11/14 06:07:18;;;;;;;58.37;35.40;;;;;;;7.57;97.58;101932.53;4985422;28;20552;-69
2022/11/14 06:10:01;;;;;;;57.33;33.30;;;;;;;7.58;97.88;101934.28;4988163;28;20273;-71
2022/11/14 06:12:46;;;;;;;56.07;34.23;;;;;;;7.58;98.42;101940.25;4987726;28;20707;-71
2022/11/14 06:15:30;;;;;;;57.53;34.30;;;;;;;7.57;97.94;101942.72;4985350;28;20203;-72
2022/11/14 06:18:14;;;;;;;64.03;35.50;;;;;;;7.57;97.51;101935.09;4984334;28;20198;-71
2022/11/14 06:21:15;;;;;;;62.80;36.20;;;;;;;7.55;98.33;101940.09;4982909;28;20262;-71
2022/11/14 06:23:59;;;;;;;58.53;33.60;;;;;;;7.54;97.60;101937.47;4986186;28;20264;-72
2022/11/14 06:26:43;;;;;;;57.77;35.53;;;;;;;7.53;98.49;101933.19;4987082;28;20234;-73
2022/11/14 06:29:27;;;;;;;62.80;36.50;;;;;;;7.54;98.22;101937.47;4988747;28;20650;-72
2022/11/14 06:32:11;;;;;;;64.77;36.03;;;;;;;7.51;97.80;101933.09;4985772;28;20254;-71
2022/11/14 06:34:55;;;;;;;67.17;36.80;;;;;;;7.49;98.77;101941.47;4985216;28;20688;-71
2022/11/14 06:37:39;;;;;;;68.17;37.63;;;;;;;7.51;97.61;101947.53;4983271;28;20214;-72
2022/11/14 06:40:23;;;;;;;76.20;41.07;;;;;;;7.45;98.27;101953.19;4987678;28;20226;-70
2022/11/14 06:43:07;;;;;;;78.83;41.33;;;;;;;7.45;97.60;101939.56;4990042;28;20210;-70
2022/11/14 06:45:54;;;;;;;80.37;39.60;;;;;;;7.46;97.67;101939.66;4988294;28;20266;-70
2022/11/14 06:48:39;;;;;;;61.97;36.10;;;;;;;7.45;98.47;101949.75;4986250;28;20695;-71
2022/11/14 06:51:24;;;;;;;66.67;37.93;;;;;;;7.44;98.46;101956.56;4985814;28;20314;-70
2022/11/14 06:54:11;;;;;;;68.77;37.37;;;;;;;7.43;98.58;101956.47;4987058;28;20905;-71
2022/11/14 06:56:55;;;;;;;69.53;38.13;;;;;;;7.40;99.17;101956.31;4985851;28;20304;-70
2022/11/14 06:59:39;;;;;;;61.23;35.77;;;;;;;7.38;98.52;101948.56;4992557;28;20217;-74
2022/11/14 07:02:23;;;;;;;64.50;36.90;;;;;;;7.34;98.21;101961.09;4987469;28;20194;-70
2022/11/14 07:05:07;;;;;;;66.20;37.20;;;;;;;7.36;97.41;101955.28;4989703;28;20258;-70
2022/11/14 07:07:50;;;;;;;64.50;35.47;;;;;;;7.37;98.38;101951.94;4987874;28;20206;-73
2022/11/14 07:10:35;;;;;;;68.30;36.03;;;;;;;7.33;97.88;101957.66;4984109;28;20234;-73
2022/11/14 07:13:18;;;;;;;65.03;35.33;;;;;;;7.32;97.63;101953.38;4987922;28;20279;-71
2022/11/14 07:16:03;;;;;;;66.13;37.00;;;;;;;7.32;98.63;101947.44;4987261;28;20744;-70
2022/11/14 07:18:47;;;;;;;63.20;37.23;;;;;;;7.28;97.84;101945.53;4988113;28;20275;-72
2022/11/14 07:21:33;;;;;;;67.47;36.13;;;;;;;7.30;97.66;101952.44;4989710;28;20195;-73
2022/11/14 07:24:17;;;;;;;70.03;37.67;;;;;;;7.30;98.39;101951.56;4990161;28;20230;-73
2022/11/14 07:27:01;;;;;;;71.13;38.33;;;;;;;7.28;98.61;101951.47;4991358;28;20342;-73
2022/11/14 07:29:45;;;;;;;67.27;37.70;;;;;;;7.28;98.14;101946.38;4989726;28;20640;-72
2022/11/14 07:32:29;;;;;;;68.03;36.40;;;;;;;7.28;97.82;101954.03;4989904;28;20327;-74
2022/11/14 07:35:13;;;;;;;67.23;38.33;;;;;;;7.25;98.74;101951.34;4990391;28;20823;-75
2022/11/14 07:38:02;;;;;;;68.80;36.93;;;;;;;7.26;98.20;101942.00;4989196;28;20323;-73
2022/11/14 07:41:01;;;;;;;70.70;38.83;;;;;;;7.31;98.21;101945.66;4987654;28;20238;-70
2022/11/14 07:43:45;;;;;;;64.93;36.00;;;;;;;7.27;97.90;101944.63;4990054;28;20198;-72
2022/11/14 07:46:28;;;;;;;66.97;38.27;;;;;;;7.33;97.66;101939.84;4987601;28;20699;-71
2022/11/14 07:49:12;;;;;;;71.63;39.07;;;;;;;7.35;97.70;101938.25;4983500;28;20230;-72
2022/11/14 07:51:56;;;;;;;70.10;36.27;;;;;;;7.31;98.54;101941.44;4988475;28;20214;-72
2022/11/14 07:54:40;;;;;;;65.57;37.20;;;;;;;7.32;98.11;101939.78;4988808;28;20419;-70
2022/11/14 07:57:25;;;;;;;69.60;37.73;;;;;;;7.36;97.55;101936.56;4989923;28;20207;-71
2022/11/14 08:00:10;;;;;;;70.63;37.90;;;;;;;7.37;98.30;101934.09;4989598;28;20246;-73
2022/11/14 08:02:54;;;;;;;64.03;35.73;;;;;;;7.40;96.95;101918.09;4988969;28;20234;-72
2022/11/14 08:05:38;;;;;;;63.33;35.67;;;;;;;7.40;97.61;101921.53;4986772;28;20684;-71
2022/11/14 08:08:21;;;;;;;63.77;34.67;;;;;;;7.44;97.12;101925.09;4984060;28;20584;-72
2022/11/14 08:11:06;;;;;;;61.53;34.93;;;;;;;7.40;97.45;101923.19;4987833;28;20230;-73
2022/11/14 08:13:49;;;;;;;66.47;36.67;;;;;;;7.46;96.97;101923.50;4989453;28;20953;-71
2022/11/14 08:16:33;;;;;;;65.53;36.30;;;;;;;7.42;97.19;101919.06;4990727;28;20283;-72
2022/11/14 08:19:17;;;;;;;67.50;36.43;;;;;;;7.46;97.64;101916.72;4991824;28;20282;-71
2022/11/14 08:22:01;;;;;;;70.27;37.27;;;;;;;7.49;97.00;101909.22;4991897;28;20229;-72
2022/11/14 08:24:45;;;;;;;63.93;35.07;;;;;;;7.48;97.30;101909.16;4989896;28;20599;-72
2022/11/14 08:27:29;;;;;;;64.93;36.63;;;;;;;7.50;97.52;101907.53;4987681;28;20687;-73
2022/11/14 08:30:13;;;;;;;64.13;37.17;;;;;;;7.54;96.80;101922.19;4986357;28;20308;-71
2022/11/14 08:33:01;;;;;;;62.53;34.47;;;;;;;7.55;97.49;101926.50;4988162;28;20722;-71
2022/11/14 08:35:45;;;;;;;65.27;36.80;;;;;;;7.55;97.16;101922.25;4990771;28;20198;-74
2022/11/14 08:38:30;;;;;;;64.73;35.73;;;;;;;7.55;96.55;101919.72;4991323;28;20206;-72
2022/11/14 08:41:14;;;;;;;66.23;36.80;;;;;;;7.53;96.52;101925.53;4984629;28;20407;-72
2022/11/14 08:43:58;;;;;;;72.10;37.33;;;;;;;7.50;96.72;101925.38;4988013;28;20215;-71
2022/11/14 08:46:42;;;;;;;63.57;35.33;;;;;;;7.55;98.10;101927.34;4985228;28;20259;-71
2022/11/14 08:49:26;;;;;;;61.50;36.13;;;;;;;7.54;96.91;101915.44;4985799;28;20230;-72
2022/11/14 08:52:11;;;;;;;63.70;36.37;;;;;;;7.57;97.79;101927.44;4987533;28;20258;-71
2022/11/14 08:54:54;;;;;;;63.97;36.07;;;;;;;7.56;97.15;101918.91;4983321;28;20206;-72
2022/11/14 08:57:38;;;;;;;65.97;35.67;;;;;;;7.54;97.17;101917.97;4988474;28;20275;-72
2022/11/14 09:00:23;;;;;;;65.30;35.50;;;;;;;7.57;96.87;101915.59;4985716;28;20258;-74
2022/11/14 09:03:08;;;;;;;61.13;34.87;;;;;;;7.62;96.68;101913.25;4985712;28;20212;-71
2022/11/14 09:05:52;;;;;;;70.87;36.57;;;;;;;7.60;96.61;101910.63;4987529;28;20685;-69
2022/11/14 09:08:37;;;;;;;63.50;35.63;;;;;;;7.65;96.84;101909.16;4988110;28;20267;-74
2022/11/14 09:11:21;;;;;;;64.83;35.47;;;;;;;7.71;96.25;101896.72;4985329;28;20254;-72
2022/11/14 09:14:05;;;;;;;63.57;35.97;;;;;;;7.65;96.23;101898.09;4989034;28;20202;-73
2022/11/14 09:16:49;;;;;;;65.30;35.87;;;;;;;7.66;96.89;101897.28;4989720;28;20203;-73
2022/11/14 09:19:34;;;;;;;62.80;36.10;;;;;;;7.67;96.48;101893.94;4987463;28;20239;-73
2022/11/14 09:22:17;;;;;;;65.13;35.60;;;;;;;7.69;97.52;101888.13;4984243;28;20207;-72
2022/11/14 09:25:02;;;;;;;65.47;35.80;;;;;;;7.65;96.89;101909.16;4987767;28;20187;-72
2022/11/14 09:27:45;;;;;;;64.37;34.77;;;;;;;7.70;96.28;101897.50;4986959;28;20215;-73
2022/11/14 09:30:29;;;;;;;63.50;35.33;;;;;;;7.76;96.93;101900.38;4985269;28;20225;-71
2022/11/14 09:33:13;;;;;;;67.33;36.93;;;;;;;7.85;96.58;101887.16;4984615;28;20256;-69
2022/11/14 09:35:59;;;;;;;66.43;36.80;;;;;;;7.86;96.38;101879.59;4990571;28;20569;-72
2022/11/14 09:38:43;;;;;;;63.37;35.10;;;;;;;7.95;96.39;101879.13;4988708;28;20274;-71
2022/11/14 09:41:40;;;;;;;61.80;35.00;;;;;;;7.93;95.46;101876.50;4989645;28;20210;-73
2022/11/14 09:44:54;;;;;;;61.27;35.93;;;;;;;7.90;95.30;101878.06;4986039;28;20319;-71
2022/11/14 09:47:44;;;;;;;64.40;34.00;;;;;;;7.96;95.23;101884.31;4985819;28;20219;-72
2022/11/14 09:50:32;;;;;;;56.80;32.87;;;;;;;8.00;94.86;101878.56;4991116;28;20226;-72
2022/11/14 09:53:31;;;;;;;54.83;32.03;;;;;;;8.03;95.05;101877.81;4991302;28;20210;-72
2022/11/14 09:56:23;;;;;;;54.30;33.07;;;;;;;7.99;95.05;101878.47;4990621;28;20258;-72
2022/11/14 09:59:11;;;;;;;57.10;33.50;;;;;;;8.07;94.27;101879.72;4989099;28;20195;-71
2022/11/14 10:02:14;;;;;;;54.90;32.50;;;;;;;8.02;95.14;101871.84;4989121;28;20204;-71
2022/11/14 10:05:22;;;;;;;54.37;33.20;;;;;;;8.05;94.76;101868.53;4988978;28;20210;-71
2022/11/14 10:08:30;;;;;;;54.20;32.30;;;;;;;8.14;94.38;101868.97;4988919;28;20194;-72
2022/11/14 10:11:22;;;;;;;57.17;32.97;;;;;;;8.16;93.51;101860.56;4990083;28;20210;-70
2022/11/14 10:14:35;;;;;;;54.53;32.13;;;;;;;8.18;93.85;101860.66;4988454;28;20195;-71
2022/11/14 10:17:49;;;;;;;54.03;31.80;;;;;;;8.23;93.74;101854.13;4992919;28;20280;-71
2022/11/14 10:21:09;;;;;;;54.13;32.77;;;;;;;8.27;93.77;101836.47;4986529;28;20286;-75
2022/11/14 10:24:25;;;;;;;54.93;33.30;;;;;;;8.36;93.04;101836.00;4989911;28;20202;-72
2022/11/14 10:27:18;;;;;;;57.50;33.17;;;;;;;8.48;92.32;101839.09;4985626;28;20191;-72
2022/11/14 10:30:11;;;;;;;51.53;31.17;;;;;;;8.58;91.72;101824.25;4990108;28;20315;-71
2022/11/14 10:33:06;;;;;;;48.03;29.70;;;;;;;8.59;91.88;101828.53;4990534;28;20673;-72
2022/11/14 10:36:12;;;;;;;49.43;29.07;;;;;;;8.68;91.26;101828.06;4990525;28;20199;-72
2022/11/14 10:39:10;;;;;;;48.70;29.93;;;;;;;8.82;90.87;101816.75;4989652;28;20189;-72
2022/11/14 10:42:00;;;;;;;47.90;30.90;;;;;;;8.94;89.69;101817.25;4985446;28;20218;-71
2022/11/14 10:45:22;;;;;;;45.97;29.77;;;;;;;9.36;88.10;101807.06;4990532;28;20323;-72
2022/11/14 10:48:12;;;;;;;42.40;27.40;;;;;;;9.82;85.25;101794.38;4987415;28;20202;-73
2022/11/14 10:50:59;;;;;;;40.53;26.53;;;;;;;10.78;81.00;101793.63;4989127;28;20274;-73
2022/11/14 10:54:03;;;;;;;35.77;24.50;;;;;;;11.44;76.38;101777.88;4989654;28;20202;-72
2022/11/14 10:56:49;;;;;;;35.77;24.83;;;;;;;13.89;68.22;101761.22;4989551;28;20207;-73
2022/11/14 10:59:33;;;;;;;32.53;22.40;;;;;;;15.45;62.58;101747.72;4987707;28;20235;-69
2022/11/14 11:02:17;;;;;;;33.90;24.47;;;;;;;16.29;57.99;101733.25;4986333;28;20202;-70
2022/11/14 11:05:15;;;;;;;33.00;24.33;;;;;;;15.92;58.41;101728.53;4987544;28;20246;-70
2022/11/14 11:14:05;;;;;;;31.40;22.40;;;;;;;19.22;48.16;101700.13;4983580;28;20938;-69
2022/11/14 11:17:07;;;;;;;31.23;23.33;;;;;;;22.21;41.61;101682.06;4986246;28;20227;-72
2022/11/14 11:19:51;;;;;;;29.83;22.98;;;;;;;21.79;42.03;101686.09;4984704;28;20231;-71
2022/11/14 11:22:37;;;;;;;27.30;21.98;;;;;;;22.08;41.61;101675.28;4981744;28;20199;-73
2022/11/14 11:25:23;;;;;;;29.88;22.60;;;;;;;19.73;45.74;101676.56;4982539;28;20668;-72
2022/11/14 11:28:20;;;;;;;39.17;28.63;;;;;;;15.51;55.83;101689.28;4999552;28;20187;-72
2022/11/14 11:31:09;;;;;;;29.57;23.17;;;;;;;19.59;47.58;101667.09;4988333;28;20771;-72
2022/11/14 11:33:54;;;;;;;31.77;23.10;;;;;;;21.39;41.73;101648.34;4986066;28;20211;-72
2022/11/14 11:36:42;;;;;;;44.35;34.22;;;;;;;21.50;42.08;101653.41;4984401;28;20250;-72
2022/11/14 11:39:34;;;;;;;26.80;21.33;;;;;;;23.35;39.01;101632.22;4983943;28;20710;-73
2022/11/14 11:42:25;;;;;;;30.23;22.75;;;;;;;23.19;38.67;101634.25;4982910;28;20195;-72
2022/11/14 11:45:18;;;;;;;27.73;22.75;;;;;;;24.56;36.14;101611.09;4990094;28;20203;-72
2022/11/14 11:48:17;;;;;;;32.05;24.95;;;;;;;24.81;35.97;101606.09;4989454;28;20257;-72
2022/11/14 11:51:03;;;;;;;29.38;23.58;;;;;;;25.41;34.63;101584.28;4991979;28;20274;-73
2022/11/14 11:53:59;;;;;;;28.65;23.60;;;;;;;25.75;34.25;101592.00;4991163;28;20277;-73
2022/11/14 11:56:46;;;;;;;28.20;24.15;;;;;;;23.39;37.96;101624.25;4988732;28;20206;-72
2022/11/14 11:59:40;;;;;;;30.20;24.52;;;;;;;24.57;36.01;101638.13;4984444;28;20222;-72
2022/11/14 12:02:25;;;;;;;31.90;25.27;;;;;;;21.88;38.88;101635.56;4990414;28;20246;-72
2022/11/14 12:05:15;;;;;;;30.27;24.63;;;;;;;24.21;37.19;101650.38;4993445;28;20206;-73
2022/11/14 12:08:06;;;;;;;29.80;24.98;;;;;;;22.23;39.67;101656.78;4996628;28;20203;-71
2022/11/14 12:10:52;;;;;;;31.20;24.90;;;;;;;24.11;37.13;101635.78;4990319;28;20274;-71
2022/11/14 12:14:01;;;;;;;29.75;23.35;;;;;;;24.85;35.66;101647.03;4988569;28;20194;-71
2022/11/14 12:16:54;;;;;;;31.90;24.87;;;;;;;22.41;39.04;101655.66;4988626;28;20227;-72
2022/11/14 12:20:16;;;;;;;30.67;24.07;;;;;;;22.80;39.03;101650.66;4991401;28;20230;-71
2022/11/14 12:23:40;;;;;;;31.67;24.07;;;;;;;19.61;46.00;101673.13;5000412;28;20198;-71
2022/11/14 12:26:50;;;;;;;37.63;26.93;;;;;;;18.44;48.53;101663.81;4991877;28;20190;-71
2022/11/14 12:29:44;;;;;;;33.37;24.90;;;;;;;18.48;49.18;101667.25;4992369;28;20226;-71
2022/11/14 12:32:32;;;;;;;32.60;25.37;;;;;;;17.77;49.99;101671.44;4990277;28;20751;-71
2022/11/14 12:35:25;;;;;;;34.67;25.93;;;;;;;21.01;42.95;101644.44;4990379;28;20615;-72
2022/11/14 12:38:14;;;;;;;33.07;24.43;;;;;;;22.71;40.58;101627.31;4992890;28;20675;-71
2022/11/14 12:41:00;;;;;;;31.57;23.50;;;;;;;23.45;38.02;101624.16;4991641;28;20219;-71
2022/11/14 12:43:46;;;;;;;33.50;25.27;;;;;;;22.84;39.07;101626.16;4992180;28;20618;-72
2022/11/14 12:47:11;;;;;;;33.87;25.07;;;;;;;22.86;39.72;101618.31;4988534;28;20202;-72
2022/11/14 12:49:57;;;;;;;33.17;24.93;;;;;;;20.17;42.90;101627.78;4992438;28;20254;-71
2022/11/14 12:52:49;;;;;;;31.77;23.93;;;;;;;20.97;42.75;101622.78;4990933;28;20349;-71
2022/11/14 12:55:36;;;;;;;32.13;24.00;;;;;;;21.57;41.91;101627.28;4992415;28;20207;-70